Time;durP1;ratioP1;P1;durP2;ratioP2;P2;SDS_P1;SDS_P2;PMS_P1;PMS_P2;Temp;Humidity;BMP_temperature;BMP_pressure;BME280_temperature;BME280_humidity;BME280_pressure;Samples;Min_cycle;Max_cycle;Signal;HPM_P1;HPM_P2
2022/02/13 00:00:15;;;;;;;63.60;37.40;;;;;;;-1.70;69.22;101621.61;108855;1272;21991;-78
2022/02/13 00:12:11;;;;;;;51.90;34.20;;;;;;;-1.71;69.29;101604.77;110380;1265;22346;-86
2022/02/13 00:19:02;;;;;;;;;;;;;;;;;;;;;
2022/02/13 00:22:59;;;;;;;;;;;;;;;;;;;;;
2022/02/13 00:33:56;;;;;;;;;;;;;;;;;;;;;
2022/02/13 00:36:48;;;;;;;51.20;35.80;;;;;;;-1.74;69.54;101561.16;110114;1275;21970;-79
2022/02/13 00:39:19;;;;;;;51.70;35.00;;;;;;;-1.75;69.61;101555.88;109954;1278;22444;-78
2022/02/13 00:41:49;;;;;;;56.60;36.40;;;;;;;-1.72;69.57;101551.09;109597;1284;21952;-78
2022/02/13 00:44:19;;;;;;;55.20;36.70;;;;;;;-1.68;69.55;101557.33;109323;1287;21874;-79
2022/02/13 00:46:48;;;;;;;52.10;36.60;;;;;;;-1.70;69.49;101554.13;109555;1287;21856;-79
2022/02/13 00:49:20;;;;;;;51.00;33.60;;;;;;;-1.70;69.51;101547.35;108572;1293;21952;-79
2022/02/13 00:51:55;;;;;;;55.50;36.20;;;;;;;-1.71;69.47;101545.33;108431;1292;21899;-80
2022/02/13 00:54:27;;;;;;;54.80;37.50;;;;;;;-1.74;69.47;101540.12;108680;1293;22338;-79
2022/02/13 00:56:57;;;;;;;56.30;37.40;;;;;;;-1.75;69.59;101540.98;108624;1291;21936;-80
2022/02/13 00:59:36;;;;;;;55.80;35.90;;;;;;;-1.76;69.65;101534.65;108860;1286;21908;-79
2022/02/13 01:02:19;;;;;;;53.80;36.90;;;;;;;-1.70;69.70;101535.80;109781;1281;21970;-80
2022/02/13 01:04:56;;;;;;;52.40;35.40;;;;;;;-1.72;69.61;101530.35;109959;1281;22047;-79
2022/02/13 01:07:29;;;;;;;50.90;36.00;;;;;;;-1.72;69.62;101526.35;109941;1275;21928;-79
2022/02/13 01:10:04;;;;;;;52.00;35.90;;;;;;;-1.70;69.61;101527.00;110097;1276;22797;-79
2022/02/13 01:12:34;;;;;;;47.80;34.30;;;;;;;-1.68;69.67;101525.68;109987;1275;21922;-79
2022/02/13 01:15:08;;;;;;;52.00;34.30;;;;;;;-1.67;69.61;101521.00;110100;1276;21966;-80
2022/02/13 01:17:40;;;;;;;48.50;33.30;;;;;;;-1.64;69.56;101527.62;110006;1276;21886;-80
2022/02/13 01:20:13;;;;;;;47.30;34.90;;;;;;;-1.65;69.63;101521.08;110098;1276;22368;-80
2022/02/13 01:22:44;;;;;;;53.80;37.40;;;;;;;-1.64;69.62;101513.98;110161;1275;21931;-79
2022/02/13 01:25:16;;;;;;;50.40;33.80;;;;;;;-1.65;69.60;101515.74;109897;1278;22408;-81
2022/02/13 01:27:49;;;;;;;50.60;33.80;;;;;;;-1.67;69.57;101511.13;109831;1283;21996;-80
2022/02/13 01:30:21;;;;;;;54.40;36.80;;;;;;;-1.67;69.57;101509.58;109805;1283;21993;-80
2022/02/13 01:32:55;;;;;;;48.60;33.00;;;;;;;-1.65;69.54;101507.09;109716;1283;21960;-80
2022/02/13 01:35:43;;;;;;;50.10;36.00;;;;;;;-1.63;69.52;101502.87;109798;1281;21980;-81
2022/02/13 01:38:16;;;;;;;47.50;34.60;;;;;;;-1.60;69.45;101503.98;109609;1287;21830;-79
2022/02/13 01:40:47;;;;;;;49.70;34.90;;;;;;;-1.58;69.50;101495.60;109526;1287;22342;-80
2022/02/13 01:43:18;;;;;;;47.30;35.40;;;;;;;-1.54;69.50;101493.02;109609;1287;22031;-80
2022/02/13 01:45:47;;;;;;;49.90;37.50;;;;;;;-1.52;69.41;101488.08;109669;1284;21830;-80
2022/02/13 01:48:20;;;;;;;50.50;33.50;;;;;;;-1.49;69.35;101479.33;109906;1283;21931;-79
2022/02/13 01:50:51;;;;;;;49.50;36.10;;;;;;;-1.46;69.31;101475.58;109933;1279;21962;-79
2022/02/13 01:53:40;;;;;;;51.40;35.80;;;;;;;-1.46;69.14;101471.77;109885;1281;21899;-79
2022/02/13 01:56:18;;;;;;;52.20;35.20;;;;;;;-1.50;69.12;101470.56;110077;1272;21923;-80
2022/02/13 01:58:52;;;;;;;50.50;33.80;;;;;;;-1.54;69.15;101466.73;110193;1273;21965;-79
2022/02/13 02:01:27;;;;;;;49.50;35.00;;;;;;;-1.59;69.14;101465.58;110206;1273;21937;-79
2022/02/13 02:03:58;;;;;;;56.10;36.50;;;;;;;-1.60;69.18;101458.90;110166;1275;22356;-80
2022/02/13 02:06:28;;;;;;;51.10;36.00;;;;;;;-1.60;69.20;101450.08;110230;1273;21987;-80
2022/02/13 02:09:00;;;;;;;52.50;35.90;;;;;;;-1.59;69.20;101455.55;110152;1274;21867;-80
2022/02/13 02:11:34;;;;;;;50.80;37.30;;;;;;;-1.57;69.20;101453.55;110300;1272;21961;-80
2022/02/13 02:14:07;;;;;;;49.10;35.00;;;;;;;-1.54;69.18;101451.05;110208;1274;21952;-79
2022/02/13 02:16:36;;;;;;;51.70;35.30;;;;;;;-1.51;69.05;101446.77;110324;1272;22347;-80
2022/02/13 02:19:14;;;;;;;48.90;34.10;;;;;;;-1.51;69.07;101450.04;110152;1275;21905;-79
2022/02/13 02:21:47;;;;;;;53.30;35.70;;;;;;;-1.53;69.05;101443.92;109960;1279;21858;-79
2022/02/13 02:24:19;;;;;;;50.10;33.90;;;;;;;-1.56;69.03;101429.69;109928;1278;21848;-78
2022/02/13 02:26:52;;;;;;;50.40;35.20;;;;;;;-1.59;69.07;101433.95;109945;1278;21867;-78
2022/02/13 02:29:25;;;;;;;52.00;36.80;;;;;;;-1.63;69.01;101427.05;109991;1279;21860;-79
2022/02/13 02:31:58;;;;;;;46.70;34.10;;;;;;;-1.64;69.13;101423.78;109959;1279;21969;-78
2022/02/13 02:34:30;;;;;;;53.00;36.40;;;;;;;-1.68;69.08;101415.66;109951;1280;21853;-79
2022/02/13 02:37:02;;;;;;;51.00;35.30;;;;;;;-1.69;69.09;101416.57;109957;1281;21894;-79
2022/02/13 02:39:34;;;;;;;51.60;35.50;;;;;;;-1.69;69.12;101408.29;109609;1279;21931;-78
2022/02/13 02:42:05;;;;;;;52.10;34.80;;;;;;;-1.67;69.16;101407.19;109945;1278;21856;-78
2022/02/13 02:44:37;;;;;;;52.70;35.00;;;;;;;-1.66;69.14;101401.95;109949;1279;21992;-80
2022/02/13 02:47:06;;;;;;;50.60;36.60;;;;;;;-1.66;69.16;101396.75;109999;1278;22373;-79
2022/02/13 02:49:36;;;;;;;50.80;35.50;;;;;;;-1.64;69.19;101392.55;109697;1286;21897;-80
2022/02/13 02:52:05;;;;;;;56.20;35.80;;;;;;;-1.62;69.22;101392.48;109156;1289;21859;-78
2022/02/13 02:54:34;;;;;;;52.40;35.80;;;;;;;-1.61;69.19;101392.08;109044;1289;21864;-79
2022/02/13 02:57:04;;;;;;;52.10;35.20;;;;;;;-1.61;69.15;101389.64;108641;1289;21965;-79
2022/02/13 02:59:36;;;;;;;47.10;35.80;;;;;;;-1.56;69.14;101397.92;108638;1292;22286;-79
2022/02/13 03:02:08;;;;;;;53.50;35.90;;;;;;;-1.65;69.20;101382.73;108180;1297;21898;-79
2022/02/13 03:04:37;;;;;;;50.70;37.60;;;;;;;-1.67;69.22;101384.54;108042;1299;21994;-79
2022/02/13 03:07:09;;;;;;;48.90;35.60;;;;;;;-1.69;69.26;101376.84;108387;1295;22347;-80
2022/02/13 03:09:40;;;;;;;57.80;36.50;;;;;;;-1.69;69.27;101376.19;108637;1290;21944;-78
2022/02/13 03:12:16;;;;;;;55.50;35.90;;;;;;;-1.67;69.34;101373.16;108404;1294;21969;-78
2022/02/13 03:14:52;;;;;;;53.10;35.80;;;;;;;-1.64;69.42;101370.25;108816;1287;21817;-79
2022/02/13 03:17:27;;;;;;;48.30;34.70;;;;;;;-1.59;69.40;101374.21;109449;1284;22422;-78
2022/02/13 03:20:09;;;;;;;45.80;33.10;;;;;;;-1.56;69.32;101369.77;109756;1279;21850;-79
2022/02/13 03:22:46;;;;;;;52.40;35.80;;;;;;;-1.56;69.32;101366.29;109989;1279;21891;-80
2022/02/13 03:25:31;;;;;;;53.90;37.30;;;;;;;-1.57;69.32;101363.72;109950;1279;22204;-80
2022/02/13 03:28:04;;;;;;;56.60;34.50;;;;;;;-1.56;69.29;101363.00;109987;1278;22352;-79
2022/02/13 03:30:37;;;;;;;51.00;34.60;;;;;;;-1.54;69.40;101355.84;110012;1275;22222;-81
2022/02/13 03:33:09;;;;;;;50.00;34.90;;;;;;;-1.52;69.36;101352.31;109979;1278;22006;-80
2022/02/13 03:35:42;;;;;;;48.00;34.00;;;;;;;-1.52;69.31;101348.65;110040;1276;21998;-78
2022/02/13 03:38:13;;;;;;;49.70;35.50;;;;;;;-1.51;69.30;101351.41;110140;1272;21944;-80
2022/02/13 03:40:47;;;;;;;48.00;33.80;;;;;;;-1.53;69.22;101349.73;110142;1275;21968;-80
2022/02/13 03:43:22;;;;;;;51.40;34.20;;;;;;;-1.58;69.30;101349.27;109878;1281;22364;-80
2022/02/13 03:45:56;;;;;;;51.80;33.60;;;;;;;-1.58;69.30;101346.20;109835;1281;21899;-80
2022/02/13 03:48:28;;;;;;;49.30;32.80;;;;;;;-1.58;69.24;101347.04;109915;1281;21897;-79
2022/02/13 03:51:11;;;;;;;;;;;;;;;;;;;;;
2022/02/13 03:53:44;;;;;;;42.70;30.50;;;;;;;-1.56;69.24;101343.67;109877;1283;22260;-81
2022/02/13 03:56:23;;;;;;;45.60;33.40;;;;;;;-1.55;69.22;101340.51;109823;1283;21899;-80
2022/02/13 03:58:59;;;;;;;47.50;32.40;;;;;;;-1.54;69.16;101339.41;109897;1278;22047;-80
2022/02/13 04:01:31;;;;;;;44.40;31.40;;;;;;;-1.53;69.19;101336.63;109877;1277;22276;-80
2022/02/13 04:04:01;;;;;;;46.00;30.60;;;;;;;-1.50;69.25;101331.48;109966;1277;22222;-80
2022/02/13 04:06:38;;;;;;;48.40;32.20;;;;;;;-1.52;69.14;101327.23;109874;1281;21886;-79
2022/02/13 04:09:08;;;;;;;48.20;32.50;;;;;;;-1.50;69.14;101332.52;109830;1281;21843;-80
2022/02/13 04:11:49;;;;;;;44.10;30.50;;;;;;;-1.53;69.15;101330.94;109972;1278;21831;-79
2022/02/13 04:14:25;;;;;;;50.80;33.70;;;;;;;-1.56;69.10;101333.48;110035;1276;21915;-78
2022/02/13 04:17:04;;;;;;;48.50;33.10;;;;;;;-1.60;69.06;101330.70;110089;1276;22017;-79
2022/02/13 04:19:46;;;;;;;48.30;32.00;;;;;;;-1.60;69.06;101327.41;110147;1272;21928;-79
2022/02/13 04:22:19;;;;;;;48.70;33.00;;;;;;;-1.62;69.03;101323.20;110279;1272;21973;-80
2022/02/13 04:24:54;;;;;;;44.50;32.50;;;;;;;-1.60;69.11;101317.58;110707;1266;21925;-79
2022/02/13 04:27:24;;;;;;;44.50;30.30;;;;;;;-1.63;68.97;101309.05;110779;1266;21906;-78
2022/02/13 04:29:53;;;;;;;45.00;30.70;;;;;;;-1.63;68.93;101306.83;110837;1266;21903;-80
2022/02/13 04:36:08;;;;;;;42.50;28.40;;;;;;;-1.59;68.91;101298.52;108181;1263;22663;-79
2022/02/13 04:38:41;;;;;;;44.00;29.60;;;;;;;-1.61;68.86;101288.42;110517;1266;436793;-79
2022/02/13 04:41:22;;;;;;;;;;;;;;;;;;;;;
2022/02/13 04:44:03;;;;;;;38.80;28.10;;;;;;;-1.60;68.86;101283.23;110859;1267;22495;-78
2022/02/13 04:47:16;;;;;;;;;;;;;;;;;;;;;
2022/02/13 04:49:58;;;;;;;45.00;31.50;;;;;;;-1.72;68.90;101274.90;110832;1265;21931;-79
2022/02/13 04:52:40;;;;;;;45.80;31.20;;;;;;;-1.79;69.00;101270.72;110691;1269;21916;-78
2022/02/13 04:55:18;;;;;;;41.20;28.60;;;;;;;-1.82;69.04;101265.85;110164;1274;22353;-79
2022/02/13 04:57:51;;;;;;;44.10;29.00;;;;;;;-1.88;69.17;101257.82;110115;1276;22051;-80
2022/02/13 05:00:25;;;;;;;43.50;30.70;;;;;;;-1.89;69.15;101262.34;110113;1275;22038;-78
2022/02/13 05:03:18;;;;;;;39.90;28.00;;;;;;;-1.91;69.23;101257.24;110158;1275;21992;-80
2022/02/13 05:06:00;;;;;;;39.30;27.90;;;;;;;-1.90;69.29;101257.23;110197;1273;22016;-79
2022/02/13 05:08:34;;;;;;;38.80;27.70;;;;;;;-1.86;69.26;101265.52;109974;1278;21925;-80
2022/02/13 05:11:29;;;;;;;41.50;26.40;;;;;;;-1.90;69.34;101255.48;110003;1276;21917;-79
2022/02/13 05:14:02;;;;;;;43.20;27.70;;;;;;;-1.90;69.41;101253.08;110187;1272;21929;-80
2022/02/13 05:16:36;;;;;;;44.80;29.50;;;;;;;-1.90;69.44;101245.98;110119;1275;22021;-78
2022/02/13 05:19:08;;;;;;;47.30;28.80;;;;;;;-1.89;69.45;101243.37;110200;1274;21962;-78
2022/02/13 05:21:57;;;;;;;;;;;;;;;;;;;;;
2022/02/13 05:24:31;;;;;;;38.40;28.70;;;;;;;-1.89;69.48;101236.96;109921;1279;22011;-80
2022/02/13 05:27:18;;;;;;;;;;;;;;;;;;;;;
2022/02/13 05:30:03;;;;;;;43.80;29.00;;;;;;;-1.92;69.46;101233.30;109869;1284;22481;-79
2022/02/13 05:32:51;;;;;;;40.70;27.90;;;;;;;-1.93;69.55;101230.57;109604;1279;21922;-79
2022/02/13 05:35:26;;;;;;;41.40;27.70;;;;;;;-1.93;69.59;101231.25;109923;1282;21869;-80
2022/02/13 05:38:03;;;;;;;46.80;30.70;;;;;;;-1.95;69.59;101230.98;109916;1278;21876;-81
2022/02/13 05:40:33;;;;;;;40.80;29.80;;;;;;;-1.95;69.60;101231.00;109932;1279;21946;-79
2022/02/13 05:43:24;;;;;;;47.30;29.80;;;;;;;-1.97;69.67;101229.20;109998;1278;21948;-79
2022/02/13 05:45:56;;;;;;;50.00;31.30;;;;;;;-1.95;69.73;101231.52;110202;1274;21931;-79
2022/02/13 05:48:35;;;;;;;48.20;31.50;;;;;;;-1.98;69.72;101225.60;110134;1273;22242;-79
2022/02/13 05:51:18;;;;;;;44.80;31.00;;;;;;;-1.95;69.76;101228.80;110242;1274;21978;-80
2022/02/13 05:53:51;;;;;;;45.00;29.20;;;;;;;-1.96;69.76;101227.27;110327;1270;22285;-80
2022/02/13 05:56:34;;;;;;;45.60;28.50;;;;;;;-1.97;69.75;101223.85;110336;1270;21907;-79
2022/02/13 05:59:12;;;;;;;39.80;26.90;;;;;;;-1.97;69.82;101220.40;110084;1275;22366;-79
2022/02/13 06:01:44;;;;;;;44.30;28.70;;;;;;;-1.98;69.91;101220.62;109967;1279;21906;-80
2022/02/13 06:04:41;;;;;;;39.60;28.00;;;;;;;-1.98;69.93;101214.94;109999;1276;21936;-79
2022/02/13 06:07:18;;;;;;;44.30;28.30;;;;;;;-1.98;69.88;101212.66;110000;1279;21797;-80
2022/02/13 06:09:59;;;;;;;42.80;29.50;;;;;;;-1.99;69.89;101218.95;109797;1282;21908;-81
2022/02/13 06:12:34;;;;;;;38.70;27.60;;;;;;;-2.04;70.00;101211.54;109420;1288;21886;-80
2022/02/13 06:15:12;;;;;;;45.60;28.60;;;;;;;-2.06;70.07;101203.52;109716;1287;21854;-79
2022/02/13 06:17:46;;;;;;;42.10;28.60;;;;;;;-2.07;70.11;101200.46;109854;1282;22762;-79
2022/02/13 06:20:15;;;;;;;35.30;25.90;;;;;;;-2.08;70.12;101195.50;110017;1279;21840;-78
2022/02/13 06:22:45;;;;;;;44.80;28.60;;;;;;;-2.08;70.15;101193.23;110006;1279;21918;-80
2022/02/13 06:25:16;;;;;;;41.40;29.40;;;;;;;-2.04;70.15;101192.05;109967;1279;21943;-80
2022/02/13 06:27:50;;;;;;;39.80;27.40;;;;;;;-2.04;70.19;101187.92;110044;1273;21952;-79
2022/02/13 06:30:19;;;;;;;41.50;28.80;;;;;;;-2.01;70.27;101187.25;110334;1270;21904;-80
2022/02/13 06:32:59;;;;;;;44.10;27.80;;;;;;;-1.97;70.30;101181.39;110119;1275;21932;-80
2022/02/13 06:35:32;;;;;;;41.30;27.80;;;;;;;-1.94;70.26;101184.17;110063;1276;21848;-80
2022/02/13 06:38:06;;;;;;;48.50;30.20;;;;;;;-1.92;70.29;101180.09;109923;1281;21854;-79
2022/02/13 06:40:44;;;;;;;35.90;26.10;;;;;;;-1.88;70.28;101182.38;109931;1281;21901;-79
2022/02/13 06:43:15;;;;;;;39.20;26.10;;;;;;;-1.86;70.34;101177.63;109893;1281;22344;-79
2022/02/13 06:45:51;;;;;;;36.50;25.60;;;;;;;-1.83;70.41;101172.67;109936;1281;21846;-80
2022/02/13 06:48:22;;;;;;;33.60;24.80;;;;;;;-1.76;70.43;101172.33;109176;1286;22315;-80
2022/02/13 06:50:54;;;;;;;37.60;26.30;;;;;;;-1.76;70.43;101175.78;109884;1276;21921;-79
2022/02/13 06:53:39;;;;;;;40.50;27.70;;;;;;;-1.71;70.48;101176.77;110025;1276;21920;-80
2022/02/13 06:56:14;;;;;;;42.30;29.40;;;;;;;-1.65;70.50;101177.70;110181;1270;21936;-80
2022/02/13 06:58:52;;;;;;;42.40;28.80;;;;;;;-1.59;70.49;101172.60;110370;1270;21885;-80
2022/02/13 07:01:24;;;;;;;;;;;;;;;-1.54;70.42;101173.27;110335;1270;21938;-80
2022/02/13 07:03:59;;;;;;;44.30;28.40;;;;;;;-1.59;70.52;101167.76;110610;1270;21910;-80
2022/02/13 07:06:36;;;;;;;40.10;30.40;;;;;;;-1.60;70.58;101163.33;110731;1263;21926;-81
2022/02/13 07:09:12;;;;;;;42.10;29.80;;;;;;;-1.56;70.60;101160.92;110938;1264;22370;-80
2022/02/13 07:11:48;;;;;;;39.90;27.40;;;;;;;-1.49;70.61;101161.27;110938;1264;21959;-80
2022/02/13 07:14:27;;;;;;;30.90;21.30;;;;;;;-1.44;70.43;101152.55;110655;1270;21942;-79
2022/02/13 07:17:00;;;;;;;33.20;22.70;;;;;;;-1.38;70.39;101153.69;110652;1269;21911;-79
2022/02/13 07:19:34;;;;;;;30.40;23.60;;;;;;;-1.32;70.43;101154.80;110694;1269;21941;-80
2022/02/13 07:22:05;;;;;;;35.10;23.20;;;;;;;-1.22;70.45;101157.96;110699;1270;21972;-79
2022/02/13 07:24:41;;;;;;;28.40;21.90;;;;;;;-1.17;70.37;101154.41;110235;1275;21939;-81
2022/02/13 07:27:12;;;;;;;30.00;22.40;;;;;;;-1.08;70.27;101155.52;110120;1274;21892;-81
2022/02/13 07:29:45;;;;;;;34.20;25.70;;;;;;;-1.00;70.26;101157.40;110140;1275;22672;-81
2022/02/13 07:32:16;;;;;;;40.00;28.00;;;;;;;-0.88;70.21;101158.59;110291;1270;21996;-78
2022/02/13 07:34:48;;;;;;;;;;;;;;;-0.78;70.13;101162.19;110552;1272;21957;-79
2022/02/13 07:37:18;;;;;;;49.50;34.90;;;;;;;-0.73;70.16;101159.56;110195;1275;21977;-79
2022/02/13 07:39:50;;;;;;;48.30;34.90;;;;;;;-0.65;70.24;101158.98;110129;1276;22332;-79
2022/02/13 07:42:19;;;;;;;46.00;31.90;;;;;;;-0.55;70.04;101162.95;110100;1276;21976;-79
2022/02/13 07:44:50;;;;;;;45.10;30.70;;;;;;;-0.48;70.05;101159.00;110099;1275;21978;-81
2022/02/13 07:47:20;;;;;;;47.20;29.20;;;;;;;-0.39;69.97;101157.19;109944;1278;21902;-79
2022/02/13 07:49:52;;;;;;;46.60;31.90;;;;;;;-0.30;69.84;101154.23;109877;1279;22261;-79
2022/02/13 07:52:22;;;;;;;37.60;26.30;;;;;;;-0.16;69.61;101161.67;109760;1284;21865;-79
2022/02/13 07:54:51;;;;;;;39.00;25.50;;;;;;;-0.05;69.69;101158.35;109748;1283;21984;-79
2022/02/13 07:57:22;;;;;;;37.60;26.70;;;;;;;0.10;69.59;101161.73;109845;1283;21932;-79
2022/02/13 07:59:51;;;;;;;32.10;24.40;;;;;;;0.25;69.41;101160.77;109908;1283;21969;-80
2022/02/13 08:02:22;;;;;;;36.90;28.70;;;;;;;0.40;69.23;101157.86;109827;1283;21893;-80
2022/02/13 08:04:57;;;;;;;46.40;37.40;;;;;;;0.52;69.02;101160.88;109900;1278;21870;-80
2022/02/13 08:07:26;;;;;;;88.90;58.10;;;;;;;0.65;68.92;101161.02;110102;1272;22025;-79
2022/02/13 08:09:56;;;;;;;76.10;53.60;;;;;;;0.80;68.88;101158.27;110356;1265;21923;-80
2022/02/13 08:12:26;;;;;;;34.60;29.00;;;;;;;1.02;68.96;101158.10;110623;1270;21929;-79
2022/02/13 08:14:55;;;;;;;29.40;22.50;;;;;;;1.23;68.25;101160.05;110451;1270;21988;-80
2022/02/13 08:17:27;;;;;;;26.70;21.70;;;;;;;1.43;67.96;101155.73;110430;1270;21927;-79
2022/02/13 08:20:13;;;;;;;30.80;23.30;;;;;;;1.74;68.07;101154.23;110615;1270;21941;-80
2022/02/13 08:22:42;;;;;;;26.30;20.60;;;;;;;2.18;68.37;101154.59;110497;1270;21848;-82
2022/02/13 08:25:12;;;;;;;27.00;22.10;;;;;;;2.65;68.73;101145.51;110585;1270;21964;-80
2022/02/13 08:27:44;;;;;;;26.50;21.90;;;;;;;3.10;67.50;101141.39;110548;1270;21921;-79
2022/02/13 08:30:34;;;;;;;;;;;;;;;;;;;;;
2022/02/13 08:33:08;;;;;;;31.20;23.70;;;;;;;4.02;65.07;101140.27;110640;1270;21928;-80
2022/02/13 08:35:44;;;;;;;30.70;25.70;;;;;;;4.16;62.82;101133.35;110665;1270;21919;-80
2022/02/13 08:38:23;;;;;;;25.50;20.80;;;;;;;4.39;62.13;101130.37;110722;1267;21997;-81
2022/02/13 08:40:57;;;;;;;29.50;23.50;;;;;;;4.59;61.03;101122.63;110819;1267;21885;-81
2022/02/13 08:43:26;;;;;;;34.30;28.10;;;;;;;4.79;60.90;101121.23;110165;1273;21878;-80
2022/02/13 08:46:06;;;;;;;32.00;27.00;;;;;;;4.95;60.13;101111.98;110250;1273;21890;-80
2022/02/13 08:48:38;;;;;;;28.40;23.20;;;;;;;5.09;59.38;101107.35;110156;1273;21895;-81
2022/02/13 08:51:22;;;;;;;28.80;20.20;;;;;;;5.22;58.91;101104.41;110239;1272;22033;-81
2022/02/13 08:53:58;;;;;;;35.60;28.90;;;;;;;5.32;58.36;101102.27;110406;1272;22035;-80
2022/02/13 08:56:30;;;;;;;27.00;21.20;;;;;;;5.40;57.92;101092.56;110233;1272;22000;-80
2022/02/13 08:59:01;;;;;;;23.30;20.00;;;;;;;5.38;57.07;101089.91;110168;1273;21933;-79
2022/02/13 09:01:33;;;;;;;19.70;17.40;;;;;;;5.41;57.00;101086.93;110550;1264;22319;-79
2022/02/13 09:04:09;;;;;;;23.10;17.80;;;;;;;5.46;56.42;101082.73;110869;1263;21923;-80
2022/02/13 09:06:56;;;;;;;19.10;17.20;;;;;;;5.57;56.06;101088.47;110932;1263;22467;-79
2022/02/13 09:09:34;;;;;;;22.80;18.00;;;;;;;5.53;55.12;101078.33;110444;1271;21966;-81
2022/02/13 09:12:05;;;;;;;27.70;21.20;;;;;;;5.55;55.38;101076.59;110189;1274;21918;-82
2022/02/13 09:14:36;;;;;;;29.40;23.10;;;;;;;5.56;55.10;101077.38;110110;1276;22371;-81
2022/02/13 09:17:06;;;;;;;28.70;21.40;;;;;;;5.53;54.41;101077.48;110131;1275;21896;-80
2022/02/13 09:19:40;;;;;;;28.80;22.20;;;;;;;5.52;54.74;101084.91;110222;1274;21872;-78
2022/02/13 09:22:14;;;;;;;35.80;29.00;;;;;;;5.62;55.32;101083.95;110117;1276;22037;-79
2022/02/13 09:24:43;;;;;;;27.90;23.00;;;;;;;5.92;55.90;101085.15;109965;1278;22472;-79
2022/02/13 09:27:14;;;;;;;27.10;23.00;;;;;;;6.08;55.26;101073.41;109815;1282;21946;-81
2022/02/13 09:29:46;;;;;;;;;;;;;;;6.16;54.43;101073.79;109799;1281;21971;-78
2022/02/13 09:32:15;;;;;;;25.80;22.40;;;;;;;6.10;53.85;101072.54;109949;1281;21872;-79
2022/02/13 09:34:47;;;;;;;51.70;34.20;;;;;;;6.06;53.89;101070.53;110067;1276;21881;-80
2022/02/13 09:37:19;;;;;;;34.50;25.20;;;;;;;6.05;53.74;101072.20;109946;1280;21966;-79
2022/02/13 09:39:52;;;;;;;31.10;24.90;;;;;;;6.04;53.36;101070.23;109980;1279;21895;-80
2022/02/13 09:42:26;;;;;;;34.40;24.00;;;;;;;6.09;53.47;101067.69;110053;1273;21981;-78
2022/02/13 09:44:58;;;;;;;21.30;17.20;;;;;;;6.14;53.29;101063.70;110144;1273;22019;-79
2022/02/13 09:47:31;;;;;;;24.90;19.20;;;;;;;6.13;52.62;101051.98;110123;1273;22301;-79
2022/02/13 09:50:19;;;;;;;;;;;;;;;;;;;;;
2022/02/13 09:52:56;;;;;;;26.10;19.90;;;;;;;6.18;53.17;101049.17;110558;1270;21992;-79
2022/02/13 09:55:26;;;;;;;22.10;17.10;;;;;;;6.23;52.51;101054.86;110780;1263;21858;-78
2022/02/13 09:58:03;;;;;;;22.90;17.90;;;;;;;6.15;51.82;101050.50;110948;1263;21904;-79
2022/02/13 10:01:10;;;;;;;20.70;16.60;;;;;;;6.13;51.84;101050.75;110679;1269;21830;-79
2022/02/13 10:03:49;;;;;;;16.10;12.90;;;;;;;6.20;51.76;101044.27;110674;1269;21901;-79
2022/02/13 10:06:28;;;;;;;23.50;16.70;;;;;;;6.24;51.63;101041.72;110118;1276;22378;-80
2022/02/13 10:08:58;;;;;;;18.50;16.00;;;;;;;6.35;51.71;101038.17;110103;1276;22123;-79
2022/02/13 10:11:35;;;;;;;;;;;;;;;6.46;51.50;101036.95;110095;1275;21958;-80
2022/02/13 10:14:10;;;;;;;27.80;23.80;;;;;;;6.53;51.22;101036.35;110109;1276;21926;-80
2022/02/13 10:16:45;;;;;;;24.90;21.10;;;;;;;6.57;50.89;101025.40;110010;1277;21839;-80
2022/02/13 10:19:19;;;;;;;20.90;17.80;;;;;;;6.66;50.82;101016.80;110069;1276;22231;-79
2022/02/13 10:21:55;;;;;;;26.20;22.50;;;;;;;6.87;51.20;101017.12;110147;1276;22267;-79
2022/02/13 10:24:39;;;;;;;27.00;20.50;;;;;;;7.17;50.92;101011.50;110128;1273;21921;-80
2022/02/13 10:27:15;;;;;;;24.80;20.60;;;;;;;7.41;50.66;101002.62;110141;1273;21938;-79
2022/02/13 10:29:57;;;;;;;30.50;25.10;;;;;;;7.73;50.66;100997.70;110261;1273;21916;-79
2022/02/13 10:32:41;;;;;;;23.10;19.70;;;;;;;8.18;50.56;100994.79;110243;1273;21856;-80
2022/02/13 10:35:15;;;;;;;24.30;20.00;;;;;;;8.57;49.50;100993.45;109985;1279;22388;-79
2022/02/13 10:37:55;;;;;;;21.70;18.80;;;;;;;8.80;47.88;100985.86;110043;1276;21925;-79
2022/02/13 10:40:42;;;;;;;24.10;17.90;;;;;;;8.95;47.38;100980.00;109956;1281;21878;-80
2022/02/13 10:43:12;;;;;;;16.50;13.80;;;;;;;9.33;46.89;100975.86;110051;1275;21883;-78
2022/02/13 10:45:56;;;;;;;22.60;18.40;;;;;;;9.65;45.21;100972.66;110119;1276;21963;-80
2022/02/13 10:48:32;;;;;;;20.10;16.60;;;;;;;10.12;45.03;100967.46;110117;1276;22328;-79
2022/02/13 10:51:05;;;;;;;23.40;20.30;;;;;;;10.78;43.93;100961.09;110077;1276;21959;-79
2022/02/13 10:53:34;;;;;;;24.60;20.70;;;;;;;11.51;43.68;100962.11;110402;1270;21946;-79
2022/02/13 10:56:06;;;;;;;17.60;15.30;;;;;;;12.25;41.81;100954.33;110581;1270;22147;-80
2022/02/13 10:58:42;;;;;;;17.10;14.80;;;;;;;12.83;39.81;100948.36;110725;1265;21994;-79
2022/02/13 11:01:18;;;;;;;22.00;16.80;;;;;;;13.24;37.74;100937.27;110968;1263;21939;-78
2022/02/13 11:03:52;;;;;;;22.20;18.40;;;;;;;13.52;36.62;100934.22;110948;1263;21872;-80
2022/02/13 11:06:29;;;;;;;15.30;12.00;;;;;;;13.97;37.47;100925.77;110926;1263;21914;-80
2022/02/13 11:09:21;;;;;;;16.50;14.00;;;;;;;14.65;36.05;100928.56;110918;1263;22006;-79
2022/02/13 11:11:52;;;;;;;18.60;14.10;;;;;;;15.27;36.37;100922.38;110988;1263;21902;-78
2022/02/13 11:14:40;;;;;;;16.30;14.50;;;;;;;16.05;34.60;100917.95;110686;1267;22023;-79
2022/02/13 11:17:12;;;;;;;18.10;16.10;;;;;;;16.53;33.64;100919.88;110629;1267;21920;-80
2022/02/13 11:19:45;;;;;;;16.60;13.40;;;;;;;17.29;33.78;100921.85;110821;1267;21910;-80
2022/02/13 11:22:15;;;;;;;11.70;9.40;;;;;;;17.92;31.67;100916.10;110622;1270;21922;-79
2022/02/13 11:24:52;;;;;;;11.70;9.40;;;;;;;17.87;29.52;100917.55;110334;1272;21947;-80
2022/02/13 11:27:25;;;;;;;17.30;12.00;;;;;;;17.27;28.87;100913.48;110310;1271;21927;-81
2022/02/13 11:30:01;;;;;;;12.80;9.70;;;;;;;16.30;28.45;100905.21;110516;1270;21923;-80
2022/02/13 11:32:42;;;;;;;23.60;16.00;;;;;;;14.78;28.53;100897.36;110610;1270;22234;-80
2022/02/13 11:35:19;;;;;;;23.80;21.20;;;;;;;13.70;30.05;100887.80;110499;1270;21934;-79
2022/02/13 11:37:52;;;;;;;20.50;14.50;;;;;;;12.84;30.97;100890.69;110099;1276;21834;-79
2022/02/13 11:41:04;;;;;;;15.90;12.10;;;;;;;11.64;31.39;100889.61;110263;1273;21937;-80
2022/02/13 11:45:27;;;;;;;13.80;10.60;;;;;;;10.13;33.45;100890.80;110681;1268;21920;-80
2022/02/13 11:49:56;;;;;;;;;;;;;;;;;;;;;
2022/02/13 11:53:40;;;;;;;;;;;;;;;;;;;;;
2022/02/13 11:57:32;;;;;;;22.80;16.30;;;;;;;8.41;37.27;100880.44;109521;1286;21810;-81
2022/02/13 12:01:07;;;;;;;17.80;14.10;;;;;;;8.09;38.02;100868.24;108606;1295;21877;-81
2022/02/13 12:04:37;;;;;;;;;;;;;;;;;;;;;
2022/02/13 12:07:45;;;;;;;20.00;16.70;;;;;;;7.58;39.35;100858.44;109542;1286;21906;-81
2022/02/13 12:10:36;;;;;;;17.90;13.30;;;;;;;7.49;39.59;100852.61;109550;1289;22349;-80
2022/02/13 12:13:36;;;;;;;20.10;14.00;;;;;;;7.36;39.53;100848.79;108764;1292;22288;-82
2022/02/13 12:20:24;;;;;;;22.90;15.10;;;;;;;7.11;40.40;100840.98;107988;1298;21836;-81
2022/02/13 12:23:32;;;;;;;;;;;;;;;;;;;;;
2022/02/13 12:33:54;;;;;;;;;;;;;;;;;;;;;
2022/02/13 12:37:12;;;;;;;;;;;;;;;;;;;;;
2022/02/13 12:42:08;;;;;;;16.80;12.60;;;;;;;6.53;41.53;100827.45;108827;1292;22010;-80
2022/02/13 12:44:48;;;;;;;;;;;;;;;;;;;;;
2022/02/13 12:52:04;;;;;;;36.50;22.40;;;;;;;6.43;42.19;100806.20;108865;1292;22045;-81
2022/02/13 12:55:04;;;;;;;;;;;;;;;;;;;;;
2022/02/13 12:57:50;;;;;;;;;;;;;;;;;;;;;
2022/02/13 13:16:45;;;;;;;;;;;;;;;;;;;;;
2022/02/13 13:21:10;;;;;;;15.50;11.10;;;;;;;7.66;39.50;100804.63;111381;1240;1333896;-80
2022/02/13 13:26:04;;;;;;;;;;;;;;;;;;;;;
2022/02/13 13:30:00;;;;;;;;;;;;;;;;;;;;;